Time;durP1;ratioP1;P1;durP2;ratioP2;P2;SDS_P1;SDS_P2;PMS_P1;PMS_P2;Temp;Humidity;BMP_temperature;BMP_pressure;BME280_temperature;BME280_humidity;BME280_pressure;Samples;Min_cycle;Max_cycle;Signal;HPM_P1;HPM_P2
2022/05/18 00:01:45;;;;;;;0.20;0.20;;;;;;;21.94;53.59;98522.88;5051088;28;20029;-76
2022/05/18 00:04:11;;;;;;;1.00;0.43;;;;;;;21.91;53.74;98527.88;5051405;28;20108;-75
2022/05/18 00:06:36;;;;;;;0.20;0.20;;;;;;;21.91;53.96;98533.31;5052101;28;20512;-76
2022/05/18 00:09:02;;;;;;;0.38;0.38;;;;;;;21.83;54.17;98528.91;5052882;28;20025;-77
2022/05/18 00:11:28;;;;;;;0.30;0.30;;;;;;;21.81;54.61;98531.19;5064374;28;20040;-77
2022/05/18 00:13:54;;;;;;;0.20;0.20;;;;;;;21.73;55.21;98529.53;5052312;28;20183;-76
2022/05/18 00:16:22;;;;;;;0.43;0.43;;;;;;;21.63;55.63;98524.69;5051959;28;20083;-76
2022/05/18 00:18:48;;;;;;;0.25;0.25;;;;;;;21.53;56.00;98521.41;5049096;28;20454;-76
2022/05/18 00:21:14;;;;;;;0.57;0.45;;;;;;;21.46;56.59;98520.47;5052655;28;20067;-77
2022/05/18 00:23:39;;;;;;;0.57;0.57;;;;;;;21.35;57.03;98520.28;5034714;28;20481;-76
2022/05/18 00:26:05;;;;;;;0.68;0.68;;;;;;;21.25;57.56;98535.25;5051447;28;20033;-76
2022/05/18 00:28:32;;;;;;;0.10;0.10;;;;;;;21.21;57.80;98534.41;5051245;28;20086;-76
2022/05/18 00:30:58;;;;;;;0.30;0.30;;;;;;;21.10;57.98;98537.72;5051611;28;20036;-77
2022/05/18 00:33:24;;;;;;;0.20;0.20;;;;;;;21.06;57.89;98550.44;5051711;28;20052;-76
2022/05/18 00:35:49;;;;;;;0.17;0.17;;;;;;;20.95;58.42;98542.06;5051738;28;20456;-76
2022/05/18 00:38:15;;;;;;;0.55;0.55;;;;;;;20.94;58.82;98553.31;5051560;28;20043;-77
2022/05/18 00:40:44;;;;;;;0.10;0.10;;;;;;;20.85;59.39;98548.09;5047086;28;20503;-76
2022/05/18 00:43:16;;;;;;;0.10;0.10;;;;;;;20.81;59.49;98554.59;5050893;28;20045;-76
2022/05/18 00:45:42;;;;;;;0.10;0.10;;;;;;;20.76;59.40;98556.47;5044682;28;20468;-76
2022/05/18 00:48:08;;;;;;;0.10;0.10;;;;;;;20.61;59.89;98552.59;5051032;28;20035;-77
2022/05/18 00:50:35;;;;;;;0.20;0.20;;;;;;;20.62;59.46;98566.97;5051081;28;20029;-76
2022/05/18 00:53:03;;;;;;;0.10;0.10;;;;;;;20.64;59.66;98561.97;5051079;28;20476;-76
2022/05/18 00:55:33;;;;;;;0.60;0.60;;;;;;;20.63;59.28;98561.19;5051450;28;20395;-76
2022/05/18 00:58:14;;;;;;;0.10;0.10;;;;;;;20.64;58.81;98575.53;5051540;28;20112;-76
2022/05/18 01:00:41;;;;;;;0.60;0.60;;;;;;;20.68;58.44;98571.00;5050990;28;20060;-75
2022/05/18 01:03:28;;;;;;;0.10;0.10;;;;;;;20.72;58.23;98574.59;5049147;28;20048;-76
2022/05/18 01:06:02;;;;;;;0.10;0.10;;;;;;;20.75;58.38;98575.81;5051175;28;20037;-80
2022/05/18 01:09:03;;;;;;;0.10;0.10;;;;;;;20.81;58.05;98585.25;5050295;28;20306;-79
2022/05/18 01:11:30;;;;;;;0.00;0.00;;;;;;;20.84;58.05;98575.63;5027757;28;20041;-82
2022/05/18 01:13:56;;;;;;;0.10;0.10;;;;;;;20.87;58.07;98580.34;5049981;28;20087;-81
2022/05/18 01:16:22;;;;;;;0.13;0.13;;;;;;;20.86;58.43;98576.03;5049593;28;20033;-84
2022/05/18 01:18:50;;;;;;;0.10;0.10;;;;;;;20.88;58.72;98576.47;5042594;28;20499;-85
2022/05/18 01:21:16;;;;;;;0.35;0.35;;;;;;;20.86;58.98;98584.19;5049036;28;20063;-84
2022/05/18 01:24:05;;;;;;;0.20;0.20;;;;;;;20.81;59.32;98577.09;5049857;28;20033;-80
2022/05/18 01:26:46;;;;;;;0.57;0.57;;;;;;;20.73;59.18;98569.97;5049761;28;20033;-77
2022/05/18 01:29:13;;;;;;;0.63;0.63;;;;;;;20.64;59.54;98565.47;5049578;28;20495;-78
2022/05/18 01:31:41;;;;;;;0.20;0.20;;;;;;;20.67;59.27;98563.22;5048856;28;20463;-77
2022/05/18 01:34:07;;;;;;;0.22;0.22;;;;;;;20.66;58.96;98567.06;5050066;28;20025;-77
2022/05/18 01:36:32;;;;;;;0.10;0.10;;;;;;;20.63;59.21;98557.69;5049494;28;20031;-79
2022/05/18 01:38:59;;;;;;;0.10;0.10;;;;;;;20.68;58.82;98572.91;5049087;28;20416;-79
2022/05/18 01:41:29;;;;;;;0.20;0.20;;;;;;;20.68;58.83;98573.72;5048970;28;20049;-79
2022/05/18 01:44:00;;;;;;;0.30;0.30;;;;;;;20.68;58.77;98571.00;5049899;28;20129;-80
2022/05/18 01:46:31;;;;;;;0.10;0.10;;;;;;;20.63;59.21;98566.63;5045322;28;20036;-79
2022/05/18 01:48:56;;;;;;;0.20;0.20;;;;;;;20.64;59.16;98567.41;5049519;28;20488;-78
2022/05/18 01:51:34;;;;;;;0.10;0.10;;;;;;;20.71;58.95;98561.34;5049295;28;20029;-77
2022/05/18 01:53:59;;;;;;;0.00;0.00;;;;;;;20.75;58.69;98554.06;5049253;28;20029;-78
2022/05/18 01:56:25;;;;;;;0.05;0.05;;;;;;;20.78;58.48;98551.44;5048546;28;20048;-78
2022/05/18 01:58:51;;;;;;;0.00;0.00;;;;;;;20.84;58.29;98549.22;5065959;28;20124;-77
2022/05/18 02:01:17;;;;;;;0.20;0.20;;;;;;;20.90;58.40;98550.53;5049205;28;20499;-77
2022/05/18 02:03:42;;;;;;;0.10;0.10;;;;;;;20.98;58.53;98547.94;5049596;28;20412;-83
2022/05/18 02:06:08;;;;;;;0.10;0.10;;;;;;;21.07;58.13;98559.41;5049139;28;20036;-80
2022/05/18 02:08:33;;;;;;;0.57;0.57;;;;;;;21.16;57.72;98551.78;5049348;28;20032;-81
2022/05/18 02:10:59;;;;;;;0.20;0.20;;;;;;;21.16;57.55;98549.06;5048300;28;20469;-81
2022/05/18 02:13:25;;;;;;;0.10;0.10;;;;;;;21.20;57.35;98552.66;5037303;28;20025;-82
2022/05/18 02:15:50;;;;;;;0.00;0.00;;;;;;;21.20;57.46;98558.09;5035219;28;20031;-81
2022/05/18 02:18:16;;;;;;;0.10;0.10;;;;;;;21.27;57.49;98565.59;5049379;28;20033;-82
2022/05/18 02:20:41;;;;;;;0.00;0.00;;;;;;;21.35;57.54;98564.59;5049157;28;20527;-82
2022/05/18 02:23:07;;;;;;;0.10;0.10;;;;;;;21.38;57.23;98561.13;5047310;28;20036;-83
2022/05/18 02:25:35;;;;;;;0.10;0.10;;;;;;;21.44;57.32;98559.69;5042986;28;20647;-81
2022/05/18 02:28:00;;;;;;;0.10;0.10;;;;;;;21.49;57.24;98553.19;5049010;28;20033;-80
2022/05/18 02:30:26;;;;;;;0.10;0.10;;;;;;;21.51;56.97;98545.47;5048948;28;20084;-79
2022/05/18 02:32:51;;;;;;;0.00;0.00;;;;;;;21.56;56.50;98545.19;5065412;28;20591;-82
2022/05/18 02:35:17;;;;;;;0.10;0.10;;;;;;;21.57;56.89;98551.44;5048969;28;20532;-83
2022/05/18 02:37:43;;;;;;;0.10;0.10;;;;;;;21.63;56.69;98554.63;5065467;28;20035;-82
2022/05/18 02:40:10;;;;;;;0.10;0.10;;;;;;;21.66;56.64;98548.47;5065963;28;20033;-81
2022/05/18 02:42:35;;;;;;;0.00;0.00;;;;;;;21.62;56.85;98553.84;5040762;28;20049;-88
2022/05/18 02:45:01;;;;;;;0.10;0.10;;;;;;;21.64;57.07;98548.03;5069136;28;20029;-84
2022/05/18 02:47:26;;;;;;;0.00;0.00;;;;;;;21.69;56.80;98555.88;5052761;28;20614;-80
2022/05/18 02:49:52;;;;;;;0.10;0.10;;;;;;;21.70;56.95;98554.75;5052421;28;20032;-81
2022/05/18 02:52:18;;;;;;;0.10;0.10;;;;;;;21.70;57.00;98554.75;5068880;28;20515;-78
2022/05/18 02:57:28;;;;;;;0.10;0.10;;;;;;;21.71;56.03;98556.31;5050532;28;20059;-82
2022/05/18 02:59:53;;;;;;;0.10;0.10;;;;;;;21.82;55.95;98559.22;5050368;28;20060;-80
2022/05/18 03:02:19;;;;;;;0.08;0.08;;;;;;;21.77;55.97;98562.25;5047009;28;20033;-80
2022/05/18 03:04:44;;;;;;;0.10;0.10;;;;;;;21.75;55.97;98560.69;5060994;28;20037;-84
2022/05/18 03:07:10;;;;;;;0.10;0.10;;;;;;;21.77;55.88;98552.16;5068465;28;20075;-88
2022/05/18 03:09:36;;;;;;;0.00;0.00;;;;;;;21.76;55.87;98542.41;5052430;28;20505;-87
2022/05/18 03:12:03;;;;;;;0.10;0.10;;;;;;;21.77;55.78;98529.59;5039098;28;20029;-84
2022/05/18 03:14:29;;;;;;;0.08;0.08;;;;;;;21.86;55.25;98532.84;5049259;28;20119;-80
2022/05/18 03:16:54;;;;;;;0.15;0.15;;;;;;;21.82;55.68;98542.91;5063377;28;20082;-82
2022/05/18 03:19:20;;;;;;;0.10;0.10;;;;;;;21.78;56.01;98542.84;5052457;28;20495;-81
2022/05/18 03:24:29;;;;;;;0.10;0.10;;;;;;;21.75;55.54;98543.53;5048004;28;20098;-81
2022/05/18 03:26:55;;;;;;;0.05;0.05;;;;;;;21.73;55.78;98549.34;5051849;28;20032;-81
2022/05/18 03:29:20;;;;;;;0.00;0.00;;;;;;;21.80;55.59;98556.06;5068394;28;20041;-81
2022/05/18 03:31:47;;;;;;;0.00;0.00;;;;;;;21.83;55.49;98547.97;5050210;28;20526;-83
2022/05/18 03:34:13;;;;;;;0.10;0.10;;;;;;;21.83;55.33;98545.25;5051922;28;20029;-80
2022/05/18 03:36:39;;;;;;;0.03;0.03;;;;;;;21.88;55.41;98541.44;5050117;28;20148;-79
2022/05/18 03:39:04;;;;;;;0.10;0.10;;;;;;;21.86;55.72;98541.00;5052803;28;20025;-81
2022/05/18 03:41:30;;;;;;;0.10;0.10;;;;;;;21.86;55.62;98549.97;5052492;28;20052;-80
2022/05/18 03:43:55;;;;;;;0.10;0.10;;;;;;;21.80;55.63;98539.75;5051184;28;20021;-80
2022/05/18 03:46:21;;;;;;;0.00;0.00;;;;;;;21.82;54.95;98551.06;5051483;28;20397;-80
2022/05/18 03:48:47;;;;;;;0.10;0.10;;;;;;;21.85;54.73;98547.59;5068241;28;20028;-82
2022/05/18 03:51:16;;;;;;;0.00;0.00;;;;;;;21.86;54.45;98551.91;5067419;28;20040;-81
2022/05/18 03:53:42;;;;;;;0.03;0.03;;;;;;;21.77;54.31;98559.53;5067685;28;20036;-87
2022/05/18 03:56:08;;;;;;;0.05;0.05;;;;;;;21.79;54.82;98563.47;5050118;28;20029;-87
2022/05/18 03:58:34;;;;;;;0.10;0.10;;;;;;;21.73;54.01;98559.47;5051766;28;20496;-85
2022/05/18 04:01:00;;;;;;;0.10;0.10;;;;;;;21.72;54.06;98566.84;5060453;28;20027;-86
2022/05/18 04:03:28;;;;;;;0.20;0.20;;;;;;;21.70;54.01;98563.72;5046704;28;20028;-88
2022/05/18 04:05:54;;;;;;;0.10;0.10;;;;;;;21.67;54.19;98563.66;5067383;28;20025;-83
2022/05/18 04:08:20;;;;;;;0.00;0.00;;;;;;;21.65;54.09;98563.22;5051289;28;20033;-87
2022/05/18 04:10:46;;;;;;;0.00;0.00;;;;;;;21.64;54.12;98567.88;5052194;28;20033;-87
2022/05/18 04:13:17;;;;;;;0.10;0.10;;;;;;;21.82;53.99;98570.13;5043908;28;20044;-88
2022/05/18 04:15:43;;;;;;;0.10;0.10;;;;;;;21.91;53.74;98571.44;5035103;28;20029;-80
2022/05/18 04:18:08;;;;;;;0.10;0.10;;;;;;;22.39;53.41;98586.59;5067585;28;20494;-77
2022/05/18 04:20:34;;;;;;;0.10;0.10;;;;;;;22.86;52.52;98577.13;5047164;28;20408;-78
2022/05/18 04:23:00;;;;;;;0.10;0.10;;;;;;;23.54;50.77;98581.03;5047197;28;20449;-79
2022/05/18 04:25:28;;;;;;;0.10;0.10;;;;;;;24.09;49.54;98572.19;5051856;28;20021;-79
2022/05/18 04:27:54;;;;;;;;;;;;;;;24.79;47.84;98572.25;5052344;28;20125;-82
2022/05/18 04:30:21;;;;;;;0.20;0.20;;;;;;;25.31;46.44;98571.28;5051290;28;19916;-82
2022/05/18 04:32:47;;;;;;;0.55;0.55;;;;;;;25.78;45.38;98572.19;5063142;28;20136;-82
2022/05/18 04:35:20;;;;;;;0.00;0.00;;;;;;;26.32;45.03;98566.69;5067315;28;20047;-82
2022/05/18 04:37:46;;;;;;;0.00;0.00;;;;;;;26.63;43.23;98574.47;5051752;28;20025;-82
2022/05/18 04:40:12;;;;;;;0.10;0.10;;;;;;;26.78;42.19;98567.78;5051958;28;20522;-82
2022/05/18 04:42:38;;;;;;;0.00;0.00;;;;;;;26.87;42.24;98574.81;5051688;28;20064;-82
2022/05/18 04:45:05;;;;;;;0.00;0.00;;;;;;;27.05;42.05;98578.28;5050753;28;20029;-83
2022/05/18 04:47:31;;;;;;;0.05;0.05;;;;;;;27.15;41.69;98587.63;5050639;28;20021;-83
2022/05/18 04:49:57;;;;;;;0.00;0.00;;;;;;;27.48;41.54;98588.28;5050244;28;20036;-82
2022/05/18 04:52:23;;;;;;;0.00;0.00;;;;;;;27.50;40.93;98580.41;5066992;28;20097;-83
2022/05/18 04:54:49;;;;;;;0.08;0.08;;;;;;;27.58;40.44;98581.94;5050291;28;20036;-83
2022/05/18 04:57:16;;;;;;;0.00;0.00;;;;;;;27.80;39.64;98588.03;5050555;28;20028;-83
2022/05/18 04:59:42;;;;;;;0.00;0.00;;;;;;;28.00;39.58;98581.22;5049745;28;20115;-82
2022/05/18 05:02:08;;;;;;;0.10;0.10;;;;;;;28.13;39.39;98581.56;5067114;28;20065;-82
2022/05/18 05:04:35;;;;;;;0.52;0.35;;;;;;;28.50;38.86;98580.03;5050200;28;20468;-82
2022/05/18 05:07:00;;;;;;;0.00;0.00;;;;;;;28.78;38.10;98581.69;5049883;28;20025;-82
2022/05/18 05:09:26;;;;;;;0.00;0.00;;;;;;;29.10;37.38;98590.75;5066739;28;20175;-83
2022/05/18 05:11:53;;;;;;;0.00;0.00;;;;;;;29.27;36.22;98586.97;5049949;28;20456;-83
2022/05/18 05:14:19;;;;;;;0.00;0.00;;;;;;;29.42;36.38;98592.34;5050286;28;20088;-83
2022/05/18 05:16:45;;;;;;;0.00;0.00;;;;;;;29.58;35.64;98592.50;5050093;28;20107;-82
2022/05/18 05:19:11;;;;;;;0.00;0.00;;;;;;;29.66;35.94;98604.19;5050177;28;20022;-82
2022/05/18 05:21:41;;;;;;;0.20;0.20;;;;;;;29.80;35.85;98601.22;5050394;28;20039;-83
2022/05/18 05:24:09;;;;;;;0.05;0.05;;;;;;;30.02;35.34;98601.69;5050019;28;20477;-84
2022/05/18 05:26:34;;;;;;;0.00;0.00;;;;;;;29.98;35.08;98609.25;5049826;28;20476;-81
2022/05/18 05:29:00;;;;;;;0.00;0.00;;;;;;;30.14;34.66;98605.81;5051263;28;20043;-83
2022/05/18 05:31:25;;;;;;;0.05;0.05;;;;;;;30.11;34.69;98608.66;5066463;28;20547;-82
2022/05/18 05:33:50;;;;;;;0.00;0.00;;;;;;;29.85;34.87;98609.00;5049761;28;20028;-81
2022/05/18 05:36:16;;;;;;;0.03;0.03;;;;;;;29.99;34.91;98623.78;5050013;28;20035;-82
2022/05/18 05:38:41;;;;;;;0.80;0.60;;;;;;;29.93;33.48;98617.19;5049692;28;20029;-82
2022/05/18 05:41:07;;;;;;;1.25;0.52;;;;;;;29.79;33.97;98620.94;5066299;28;20060;-81
2022/05/18 05:43:32;;;;;;;0.32;0.20;;;;;;;29.92;33.76;98621.16;5066789;28;20021;-82
2022/05/18 05:46:09;;;;;;;0.00;0.00;;;;;;;29.98;33.39;98617.50;5050001;28;20236;-82
2022/05/18 05:48:35;;;;;;;0.00;0.00;;;;;;;29.89;33.62;98621.97;5049968;28;20463;-82
2022/05/18 05:51:01;;;;;;;0.00;0.00;;;;;;;29.92;33.59;98624.69;5049362;28;20132;-82
2022/05/18 05:53:27;;;;;;;0.00;0.00;;;;;;;29.94;33.04;98630.56;5049823;28;20035;-83
2022/05/18 05:55:56;;;;;;;0.00;0.00;;;;;;;29.99;33.00;98632.06;5049463;28;20025;-84
2022/05/18 05:58:22;;;;;;;0.28;0.20;;;;;;;30.05;33.34;98624.09;5066358;28;20033;-84
2022/05/18 06:00:48;;;;;;;0.00;0.00;;;;;;;30.24;33.19;98633.66;5049523;28;20534;-83
2022/05/18 06:03:15;;;;;;;0.00;0.00;;;;;;;30.30;33.03;98629.97;5049452;28;20029;-83
2022/05/18 06:05:41;;;;;;;0.08;0.08;;;;;;;30.50;33.33;98638.34;5049546;28;20060;-83
2022/05/18 06:08:08;;;;;;;0.10;0.10;;;;;;;30.72;32.55;98640.69;5049383;28;20029;-83
2022/05/18 06:10:34;;;;;;;0.00;0.00;;;;;;;30.89;32.35;98641.56;5049449;28;20064;-84
2022/05/18 06:13:05;;;;;;;0.00;0.00;;;;;;;31.09;32.41;98649.88;5049505;28;20094;-83
2022/05/18 06:15:30;;;;;;;0.10;0.10;;;;;;;31.18;31.97;98641.03;5049770;28;20028;-83
2022/05/18 06:17:55;;;;;;;0.00;0.00;;;;;;;31.29;31.82;98651.84;5051529;28;20120;-83
2022/05/18 06:20:21;;;;;;;0.00;0.00;;;;;;;31.27;31.59;98654.25;5070559;28;20385;-83
2022/05/18 06:22:46;;;;;;;0.00;0.00;;;;;;;31.27;31.57;98651.50;5053588;28;20029;-83
2022/05/18 06:25:13;;;;;;;0.20;0.20;;;;;;;31.16;31.85;98654.47;5055113;28;20094;-83
2022/05/18 06:27:40;;;;;;;0.00;0.00;;;;;;;31.08;32.61;98656.59;5053641;28;20123;-83
2022/05/18 06:30:08;;;;;;;0.00;0.00;;;;;;;30.89;32.61;98649.84;5053229;28;20033;-82
2022/05/18 06:32:33;;;;;;;;;;;;;;;30.60;32.56;98657.88;5053380;28;20025;-82
2022/05/18 06:34:58;;;;;;;0.00;0.00;;;;;;;30.60;33.04;98668.91;5053268;28;20011;-82
2022/05/18 06:37:24;;;;;;;0.13;0.13;;;;;;;30.53;33.57;98669.03;5053611;28;20762;-84
2022/05/18 06:39:49;;;;;;;0.00;0.00;;;;;;;30.46;33.28;98665.16;5053132;28;20029;-82
2022/05/18 06:42:15;;;;;;;0.32;0.32;;;;;;;30.38;33.14;98669.25;5053371;28;20215;-83
2022/05/18 06:44:40;;;;;;;0.10;0.10;;;;;;;30.21;33.68;98660.06;5069897;28;20033;-82
2022/05/18 06:47:06;;;;;;;0.00;0.00;;;;;;;29.90;33.97;98659.38;5053850;28;20420;-84
2022/05/18 06:49:31;;;;;;;0.10;0.10;;;;;;;29.74;34.41;98665.50;5070572;28;20028;-81
2022/05/18 06:51:57;;;;;;;0.00;0.00;;;;;;;29.42;34.32;98653.72;5071874;28;20477;-83
2022/05/18 06:54:22;;;;;;;0.00;0.00;;;;;;;29.00;35.04;98664.81;5056662;28;20025;-82
2022/05/18 06:56:48;;;;;;;0.00;0.00;;;;;;;28.69;35.91;98669.47;5058017;28;20029;-83
2022/05/18 06:59:14;;;;;;;0.00;0.00;;;;;;;28.43;36.42;98666.13;5058042;28;20028;-82
2022/05/18 07:01:55;;;;;;;0.00;0.00;;;;;;;28.23;37.01;98657.66;5078992;28;20035;-82
2022/05/18 07:04:21;;;;;;;0.00;0.00;;;;;;;28.23;36.65;98668.66;5058714;28;20097;-82
2022/05/18 07:06:47;;;;;;;0.00;0.00;;;;;;;28.16;37.19;98666.75;5056791;28;20039;-84
2022/05/18 07:09:19;;;;;;;0.00;0.00;;;;;;;28.17;37.27;98664.78;5056588;28;20389;-84
2022/05/18 07:11:49;;;;;;;0.00;0.00;;;;;;;28.11;37.05;98667.97;5052416;28;20035;-84
2022/05/18 07:14:16;;;;;;;0.08;0.08;;;;;;;28.14;37.20;98668.31;5052667;28;20062;-84
2022/05/18 07:16:42;;;;;;;0.10;0.10;;;;;;;28.18;36.88;98664.34;5052917;28;20029;-85
2022/05/18 07:19:09;;;;;;;0.05;0.05;;;;;;;28.21;37.29;98658.06;5052961;28;20408;-85
2022/05/18 07:21:34;;;;;;;0.25;0.25;;;;;;;28.26;37.92;98654.88;5052668;28;20032;-82
2022/05/18 07:24:00;;;;;;;0.00;0.00;;;;;;;28.36;37.66;98657.94;5069763;28;20025;-84
2022/05/18 07:26:28;;;;;;;0.20;0.20;;;;;;;28.37;37.18;98667.75;5052851;28;20480;-84
2022/05/18 07:28:54;;;;;;;0.10;0.10;;;;;;;28.43;36.77;98664.16;5052000;28;20052;-84
2022/05/18 07:31:20;;;;;;;0.00;0.00;;;;;;;28.44;36.28;98665.72;5052327;28;20111;-84
2022/05/18 07:33:47;;;;;;;0.10;0.10;;;;;;;28.49;36.60;98659.00;5068920;28;20029;-85
2022/05/18 07:36:14;;;;;;;0.00;0.00;;;;;;;28.53;37.12;98676.25;5052646;28;20482;-84
2022/05/18 07:38:40;;;;;;;0.00;0.00;;;;;;;28.58;36.99;98672.28;5068522;28;20485;-84
2022/05/18 07:41:08;;;;;;;0.00;0.00;;;;;;;28.56;36.56;98675.44;5052001;28;20040;-84
2022/05/18 07:43:33;;;;;;;0.00;0.00;;;;;;;28.63;36.67;98676.56;5052243;28;20025;-84
2022/05/18 07:45:59;;;;;;;0.22;0.10;;;;;;;28.65;36.75;98671.41;5051917;28;20190;-84
2022/05/18 07:48:25;;;;;;;0.10;0.10;;;;;;;28.66;37.07;98676.53;5052334;28;20488;-84
2022/05/18 07:50:51;;;;;;;0.00;0.00;;;;;;;28.60;35.92;98673.44;5051716;28;20506;-83
2022/05/18 07:53:18;;;;;;;0.13;0.13;;;;;;;28.52;36.07;98690.41;5052026;28;20025;-82
2022/05/18 07:55:43;;;;;;;1.58;0.28;;;;;;;28.46;36.50;98679.06;5052308;28;20408;-83
2022/05/18 07:58:12;;;;;;;0.00;0.00;;;;;;;28.47;36.43;98683.38;5068644;28;20028;-83
2022/05/18 08:00:39;;;;;;;0.00;0.00;;;;;;;28.49;36.70;98681.00;5051762;28;20025;-84
2022/05/18 08:03:07;;;;;;;0.00;0.00;;;;;;;28.50;36.83;98676.28;5051795;28;20021;-83
2022/05/18 08:05:33;;;;;;;0.13;0.13;;;;;;;28.55;37.37;98681.34;5051925;28;20040;-83
2022/05/18 08:08:06;;;;;;;0.00;0.00;;;;;;;28.55;36.82;98670.34;5068443;28;20021;-84
2022/05/18 08:15:59;;;;;;;0.22;0.22;;;;;;;28.45;36.52;98688.50;5052877;28;20424;-83
2022/05/18 08:18:24;;;;;;;0.03;0.03;;;;;;;28.43;37.21;98685.38;5051757;28;20021;-83
2022/05/18 08:20:51;;;;;;;0.00;0.00;;;;;;;28.28;36.79;98680.00;5051247;28;20099;-83
2022/05/18 08:23:17;;;;;;;0.20;0.20;;;;;;;28.10;37.13;98688.38;5051563;28;20021;-83
2022/05/18 08:25:46;;;;;;;0.15;0.15;;;;;;;28.02;37.48;98689.56;5051017;28;20029;-83
2022/05/18 08:28:12;;;;;;;0.08;0.08;;;;;;;27.98;37.24;98696.28;5051322;28;20021;-82
2022/05/18 08:30:39;;;;;;;0.32;0.28;;;;;;;27.86;37.70;98694.78;5051337;28;20033;-82
2022/05/18 08:33:05;;;;;;;0.55;0.22;;;;;;;27.83;38.14;98696.38;5068045;28;20396;-82
2022/05/18 08:35:30;;;;;;;0.20;0.20;;;;;;;27.91;38.31;98699.88;5051279;28;20033;-82
2022/05/18 08:37:57;;;;;;;0.00;0.00;;;;;;;27.88;38.62;98697.91;5067453;28;20021;-82
2022/05/18 08:40:36;;;;;;;0.00;0.00;;;;;;;27.86;37.86;98694.78;5050215;28;20021;-82
2022/05/18 08:43:07;;;;;;;0.00;0.00;;;;;;;27.91;37.95;98697.88;5050449;28;20643;-83
2022/05/18 08:45:36;;;;;;;0.10;0.10;;;;;;;27.97;37.78;98706.50;5052297;28;20025;-83
2022/05/18 08:48:15;;;;;;;0.00;0.00;;;;;;;27.99;37.46;98706.09;5050339;28;20170;-84
2022/05/18 08:50:40;;;;;;;0.00;0.00;;;;;;;27.86;37.84;98703.03;5050438;28;20518;-83
2022/05/18 08:53:24;;;;;;;0.40;0.20;;;;;;;27.88;38.21;98708.91;5050647;28;20056;-83
2022/05/18 08:55:50;;;;;;;0.57;0.57;;;;;;;27.94;38.63;98704.53;5067025;28;20106;-84
2022/05/18 08:58:27;;;;;;;0.00;0.00;;;;;;;27.98;38.19;98710.00;5067333;28;20469;-84
2022/05/18 09:00:58;;;;;;;0.00;0.00;;;;;;;28.04;37.95;98722.16;5067067;28;20111;-84
2022/05/18 09:03:33;;;;;;;0.00;0.00;;;;;;;28.08;37.93;98711.97;5050723;28;20048;-83
2022/05/18 09:06:25;;;;;;;0.00;0.00;;;;;;;28.08;37.38;98720.97;5050420;28;20032;-84
2022/05/18 09:11:45;;;;;;;0.00;0.00;;;;;;;27.95;37.98;98722.59;5051442;28;20032;-83
2022/05/18 09:14:12;;;;;;;0.05;0.05;;;;;;;27.89;37.90;98713.22;5050675;28;20424;-84
2022/05/18 09:16:41;;;;;;;0.15;0.15;;;;;;;27.82;37.89;98727.00;5050488;28;20031;-83
2022/05/18 09:19:44;;;;;;;0.03;0.03;;;;;;;27.76;38.32;98724.66;5050594;28;20037;-83
2022/05/18 09:22:37;;;;;;;0.10;0.10;;;;;;;27.62;38.12;98733.78;5051716;28;20056;-83
2022/05/18 09:25:27;;;;;;;0.15;0.15;;;;;;;27.59;38.56;98729.06;5050230;28;20060;-83
2022/05/18 09:28:31;;;;;;;0.60;0.45;;;;;;;27.55;38.23;98731.06;5066766;28;20041;-83
2022/05/18 09:31:21;;;;;;;0.00;0.00;;;;;;;27.44;39.20;98727.53;5066312;28;20484;-84
2022/05/18 09:34:23;;;;;;;0.10;0.10;;;;;;;27.42;39.27;98732.66;5050006;28;20036;-84
2022/05/18 09:36:55;;;;;;;0.10;0.10;;;;;;;27.43;39.00;98718.53;5066518;28;20060;-83
2022/05/18 09:39:26;;;;;;;0.00;0.00;;;;;;;27.45;39.12;98718.13;5066926;28;20408;-83
2022/05/18 09:42:02;;;;;;;0.00;0.00;;;;;;;27.36;39.68;98706.78;5049527;28;20049;-83
2022/05/18 09:44:47;;;;;;;0.10;0.10;;;;;;;27.26;39.28;98714.63;5049939;28;20104;-82
2022/05/18 09:47:18;;;;;;;0.00;0.00;;;;;;;27.35;39.86;98711.47;5066456;28;20048;-82
2022/05/18 09:49:48;;;;;;;0.10;0.10;;;;;;;27.35;39.81;98716.19;5049611;28;20043;-82
2022/05/18 09:52:18;;;;;;;0.00;0.00;;;;;;;27.31;40.73;98711.47;5049587;28;20024;-82
2022/05/18 09:54:44;;;;;;;0.35;0.35;;;;;;;27.37;41.28;98714.59;5066524;28;20462;-83
2022/05/18 09:57:23;;;;;;;0.10;0.10;;;;;;;27.34;40.47;98712.63;5066540;28;20028;-81
2022/05/18 09:59:56;;;;;;;0.08;0.08;;;;;;;27.28;40.76;98698.56;5048313;28;20095;-81
2022/05/18 10:07:57;;;;;;;0.00;0.00;;;;;;;27.18;41.69;98704.84;5050947;28;20048;-82
2022/05/18 10:10:28;;;;;;;0.20;0.20;;;;;;;27.06;41.21;98714.31;5049643;28;20029;-84
2022/05/18 10:12:54;;;;;;;0.00;0.00;;;;;;;27.05;41.32;98714.69;5049508;28;20025;-84
2022/05/18 10:15:25;;;;;;;0.38;0.38;;;;;;;26.96;41.36;98721.38;5049625;28;20555;-84
2022/05/18 10:18:19;;;;;;;0.20;0.20;;;;;;;26.89;40.53;98718.66;5049411;28;20029;-84
2022/05/18 10:21:10;;;;;;;0.10;0.10;;;;;;;26.72;40.51;98722.97;5046518;28;20029;-82
2022/05/18 10:23:47;;;;;;;0.20;0.20;;;;;;;26.57;41.55;98738.63;5046427;28;20025;-83
2022/05/18 10:26:41;;;;;;;0.00;0.00;;;;;;;26.51;40.43;98730.00;5030899;28;20080;-84
2022/05/18 10:29:18;;;;;;;1.38;0.65;;;;;;;26.46;40.58;98765.25;5023641;28;20045;-84
2022/05/18 10:31:56;;;;;;;;;;;;;;;26.24;42.52;98758.97;5046310;28;20117;-84
2022/05/18 10:34:29;;;;;;;0.17;0.15;;;;;;;26.05;41.78;98791.00;5029679;28;19924;-83
2022/05/18 10:37:00;;;;;;;0.20;0.20;;;;;;;25.86;41.69;98798.34;5029522;28;20508;-84
2022/05/18 10:39:35;;;;;;;0.10;0.10;;;;;;;25.66;42.66;98808.03;5029417;28;20500;-83
2022/05/18 10:42:16;;;;;;;0.00;0.00;;;;;;;25.38;43.41;98815.72;5045372;28;20056;-83
2022/05/18 10:44:43;;;;;;;0.28;0.28;;;;;;;25.18;44.55;98814.38;5029433;28;20030;-82
2022/05/18 10:47:14;;;;;;;0.65;0.65;;;;;;;24.94;45.66;98833.75;5029425;28;20099;-83
2022/05/18 10:49:40;;;;;;;0.10;0.10;;;;;;;24.76;46.80;98847.25;5045896;28;20069;-83
2022/05/18 10:52:22;;;;;;;0.00;0.00;;;;;;;24.58;47.73;98847.06;5029040;28;20033;-83
2022/05/18 10:54:55;;;;;;;0.47;0.47;;;;;;;24.44;48.74;98864.09;5031356;28;20040;-84
2022/05/18 10:57:30;;;;;;;0.15;0.15;;;;;;;24.07;50.69;98877.69;5049415;28;20476;-84
2022/05/18 10:59:55;;;;;;;0.45;0.45;;;;;;;23.69;53.89;98898.63;5048883;28;20033;-85
2022/05/18 11:02:47;;;;;;;0.38;0.38;;;;;;;22.91;52.00;98926.94;5049151;28;20036;-84
2022/05/18 11:05:19;;;;;;;0.10;0.10;;;;;;;22.24;54.37;98942.38;5052737;28;20064;-86
2022/05/18 11:07:46;;;;;;;0.00;0.00;;;;;;;21.18;56.07;98967.47;5052826;28;20079;-86
2022/05/18 11:10:12;;;;;;;0.40;0.40;;;;;;;20.56;58.74;98981.31;5052579;28;20029;-84
2022/05/18 11:12:54;;;;;;;0.13;0.13;;;;;;;19.88;61.81;98963.78;5052931;28;20025;-88
2022/05/18 11:15:37;;;;;;;0.00;0.00;;;;;;;18.94;62.77;99039.28;5053155;28;20416;-88
2022/05/18 11:18:23;;;;;;;0.10;0.10;;;;;;;18.38;65.54;99011.31;5052682;28;20032;-86
2022/05/18 11:20:49;;;;;;;0.85;0.63;;;;;;;17.79;66.66;99017.47;5052429;28;20115;-86
2022/05/18 11:23:31;;;;;;;0.10;0.10;;;;;;;17.26;69.50;99038.47;5052383;28;20052;-87
2022/05/18 11:26:00;;;;;;;0.00;0.00;;;;;;;16.98;70.64;99028.03;5052042;28;20100;-87
2022/05/18 11:28:42;;;;;;;0.10;0.10;;;;;;;16.71;72.35;99040.69;5052407;28;20055;-88
2022/05/18 11:31:20;;;;;;;0.10;0.10;;;;;;;16.19;72.24;99054.09;5052080;28;20492;-88
2022/05/18 11:34:20;;;;;;;0.07;0.07;;;;;;;16.05;74.97;99040.72;5052367;28;20488;-87
2022/05/18 11:37:13;;;;;;;0.10;0.10;;;;;;;15.77;75.55;99022.81;5052172;28;20029;-87
2022/05/18 11:39:54;;;;;;;0.10;0.10;;;;;;;15.56;75.86;99024.47;5052069;28;20036;-88
2022/05/18 11:42:19;;;;;;;0.10;0.10;;;;;;;15.44;77.10;99039.31;5051760;28;20053;-88
2022/05/18 11:44:57;;;;;;;0.10;0.10;;;;;;;15.20;77.91;99039.63;5052221;28;20087;-88
2022/05/18 11:47:52;;;;;;;0.00;0.00;;;;;;;15.09;77.67;99057.13;5052136;28;20029;-87
2022/05/18 11:50:54;;;;;;;0.00;0.00;;;;;;;14.80;78.25;99088.72;5051726;28;20048;-88
2022/05/18 11:53:29;;;;;;;0.10;0.10;;;;;;;14.59;78.61;99082.97;5051627;28;20033;-88
2022/05/18 11:56:22;;;;;;;0.10;0.10;;;;;;;14.55;79.11;99092.75;5051664;28;20393;-89
2022/05/18 11:59:06;;;;;;;0.10;0.10;;;;;;;14.53;79.15;99086.88;5052127;28;20029;-89
2022/05/18 12:01:48;;;;;;;0.00;0.00;;;;;;;14.32;78.41;99118.75;5051992;28;20025;-88
2022/05/18 12:04:25;;;;;;;0.10;0.10;;;;;;;14.16;79.61;99102.94;5051638;28;20179;-89
2022/05/18 12:07:19;;;;;;;0.22;0.22;;;;;;;13.99;80.77;99114.25;5051541;28;20085;-88